createdAt,value
2022-08-07T00:00:03.046Z,11.05
2022-08-07T00:01:01.119Z,11.04
2022-08-07T00:02:36.360Z,11.03
2022-08-07T00:03:00.415Z,11
2022-08-07T00:04:00.599Z,10.98
2022-08-07T00:05:00.794Z,10.96
2022-08-07T00:06:00.867Z,10.95
2022-08-07T00:07:01.422Z,10.93
2022-08-07T00:08:02.247Z,10.92
2022-08-07T00:09:00.321Z,10.88
2022-08-07T00:10:19.077Z,10.87
2022-08-07T00:11:00.639Z,10.87
2022-08-07T00:12:00.767Z,10.88
2022-08-07T00:13:01.837Z,10.88
2022-08-07T00:14:01.072Z,10.88
2022-08-07T00:15:00.270Z,10.87
2022-08-07T00:16:00.415Z,10.87
2022-08-07T00:17:00.558Z,10.86
2022-08-07T00:18:00.708Z,10.85
2022-08-07T00:19:00.870Z,10.84
2022-08-07T00:20:03.249Z,10.83
2022-08-07T00:21:01.393Z,10.8
2022-08-07T00:22:02.357Z,10.78
2022-08-07T00:23:00.482Z,10.77
2022-08-07T00:24:00.637Z,10.75
2022-08-07T00:25:00.783Z,10.74
2022-08-07T00:26:13.393Z,10.73
2022-08-07T00:27:07.401Z,10.72
2022-08-07T00:28:01.226Z,10.71
2022-08-07T00:29:00.368Z,10.7
2022-08-07T00:30:00.509Z,10.69
2022-08-07T00:31:00.677Z,10.68
2022-08-07T00:32:00.833Z,10.67
2022-08-07T00:33:00.955Z,10.65
2022-08-07T00:34:01.104Z,10.64
2022-08-07T00:35:01.243Z,10.59
2022-08-07T00:36:00.386Z,10.59
2022-08-07T00:37:00.557Z,10.62
2022-08-07T00:38:00.695Z,10.6
2022-08-07T00:39:00.877Z,10.58
2022-08-07T00:40:01.043Z,10.59
2022-08-07T00:41:01.137Z,10.58
2022-08-07T00:42:05.013Z,10.57
2022-08-07T00:43:00.439Z,10.56
2022-08-07T00:44:02.835Z,10.54
2022-08-07T00:45:00.730Z,10.51
2022-08-07T00:46:02.029Z,10.51
2022-08-07T00:47:01.051Z,10.52
2022-08-07T00:48:05.455Z,10.52
2022-08-07T00:49:02.047Z,10.5
2022-08-07T00:50:19.096Z,10.49
2022-08-07T00:51:00.851Z,10.5
2022-08-07T00:52:00.763Z,10.49
2022-08-07T00:53:00.932Z,10.45
2022-08-07T00:54:01.060Z,10.42
2022-08-07T00:55:04.992Z,10.43
2022-08-07T00:56:03.747Z,10.4
2022-08-07T00:57:00.514Z,10.41
2022-08-07T00:58:00.681Z,10.43
2022-08-07T00:59:00.805Z,10.44
2022-08-07T01:00:00.959Z,10.48
2022-08-07T01:01:01.142Z,10.51
2022-08-07T01:02:00.318Z,10.51
2022-08-07T01:03:00.443Z,10.51
2022-08-07T01:04:00.575Z,10.51
2022-08-07T01:05:00.716Z,10.52
2022-08-07T01:06:00.855Z,10.5
2022-08-07T01:07:01.004Z,10.45
2022-08-07T01:08:01.164Z,10.43
2022-08-07T01:09:01.216Z,10.4
2022-08-07T01:10:05.839Z,10.36
2022-08-07T01:11:00.761Z,10.36
2022-08-07T01:12:23.279Z,10.37
2022-08-07T01:13:00.906Z,10.37
2022-08-07T01:14:01.023Z,10.34
2022-08-07T01:15:03.901Z,10.31
2022-08-07T01:16:05.023Z,10.34
2022-08-07T01:17:00.463Z,10.31
2022-08-07T01:18:00.626Z,10.3
2022-08-07T01:19:00.757Z,10.26
2022-08-07T01:20:00.901Z,10.24
2022-08-07T01:21:01.044Z,10.24
2022-08-07T01:22:01.187Z,10.25
2022-08-07T01:23:12.022Z,10.24
2022-08-07T01:24:00.480Z,10.23
2022-08-07T01:25:00.643Z,10.21
2022-08-07T01:26:00.783Z,10.16
2022-08-07T01:27:00.930Z,10.14
2022-08-07T01:28:01.096Z,10.13
2022-08-07T01:29:01.235Z,10.13
2022-08-07T01:30:00.524Z,10.11
2022-08-07T01:31:00.528Z,10.11
2022-08-07T01:32:00.669Z,10.1
2022-08-07T01:33:00.832Z,10.1
2022-08-07T01:34:00.949Z,10.1
2022-08-07T01:35:01.103Z,10.11
2022-08-07T01:36:05.904Z,10.12
2022-08-07T01:37:00.389Z,10.1
2022-08-07T01:38:00.554Z,10.06
2022-08-07T01:39:00.795Z,10.05
2022-08-07T01:40:00.931Z,10.04
2022-08-07T01:41:00.972Z,10.01
2022-08-07T01:42:37.041Z,9.99
2022-08-07T01:43:00.284Z,9.98
2022-08-07T01:44:00.391Z,9.96
2022-08-07T01:45:00.561Z,9.94
2022-08-07T01:46:00.687Z,9.93
2022-08-07T01:47:01.176Z,9.92
2022-08-07T01:48:21.629Z,9.9
2022-08-07T01:49:02.291Z,9.88
2022-08-07T01:50:00.621Z,9.85
2022-08-07T01:51:24.145Z,9.82
2022-08-07T01:52:02.130Z,9.8
2022-08-07T01:53:00.716Z,9.78
2022-08-07T01:54:12.639Z,9.76
2022-08-07T01:55:01.064Z,9.74
2022-08-07T01:56:01.185Z,9.72
2022-08-07T01:57:00.366Z,9.74
2022-08-07T01:58:01.400Z,9.69
2022-08-07T01:59:00.645Z,9.67
2022-08-07T02:00:00.822Z,9.67
2022-08-07T02:01:09.415Z,9.67
2022-08-07T02:02:04.226Z,9.66
2022-08-07T02:03:18.298Z,9.65
2022-08-07T02:04:00.425Z,9.65
2022-08-07T02:05:00.558Z,9.65
2022-08-07T02:06:01.251Z,9.64
2022-08-07T02:07:00.829Z,9.62
2022-08-07T02:08:00.970Z,9.61
2022-08-07T02:09:01.112Z,9.6
2022-08-07T02:10:00.305Z,9.59
2022-08-07T02:11:00.427Z,9.59
2022-08-07T02:12:03.268Z,9.57
2022-08-07T02:13:00.723Z,9.56
2022-08-07T02:14:02.690Z,9.53
2022-08-07T02:15:01.087Z,9.52
2022-08-07T02:16:01.148Z,9.5
2022-08-07T02:17:00.311Z,9.49
2022-08-07T02:18:00.452Z,9.47
2022-08-07T02:19:00.613Z,9.46
2022-08-07T02:20:05.789Z,9.44
2022-08-07T02:21:00.899Z,9.41
2022-08-07T02:22:01.055Z,9.39
2022-08-07T02:23:01.190Z,9.39
2022-08-07T02:24:00.341Z,9.39
2022-08-07T02:25:00.523Z,9.38
2022-08-07T02:26:31.114Z,9.38
2022-08-07T02:27:01.433Z,9.39
2022-08-07T02:28:00.934Z,9.37
2022-08-07T02:29:01.092Z,9.35
2022-08-07T02:30:03.607Z,9.37
2022-08-07T02:31:00.394Z,9.37
2022-08-07T02:32:00.527Z,9.34
2022-08-07T02:33:09.134Z,9.32
2022-08-07T02:34:10.962Z,9.31
2022-08-07T02:35:01.144Z,9.3
2022-08-07T02:36:29.619Z,9.27
2022-08-07T02:37:00.253Z,9.27
2022-08-07T02:38:00.413Z,9.26
2022-08-07T02:39:00.662Z,9.26
2022-08-07T02:40:12.001Z,9.23
2022-08-07T02:41:00.983Z,9.22
2022-08-07T02:42:01.061Z,9.2
2022-08-07T02:43:01.204Z,9.19
2022-08-07T02:44:00.360Z,9.19
2022-08-07T02:45:00.504Z,9.19
2022-08-07T02:46:02.485Z,9.18
2022-08-07T02:47:01.079Z,9.18
2022-08-07T02:48:01.682Z,9.17
2022-08-07T02:49:03.345Z,9.16
2022-08-07T02:50:01.246Z,9.14
2022-08-07T02:51:00.435Z,9.12
2022-08-07T02:52:00.532Z,9.1
2022-08-07T02:53:00.938Z,9.09
2022-08-07T02:54:00.812Z,9.07
2022-08-07T02:55:00.984Z,9.07
2022-08-07T02:56:02.990Z,9.06
2022-08-07T02:57:00.257Z,9.04
2022-08-07T02:58:00.414Z,9.03
2022-08-07T02:59:00.551Z,9.04
2022-08-07T03:00:01.101Z,9.02
2022-08-07T03:01:00.882Z,9
2022-08-07T03:02:01.926Z,8.97
2022-08-07T03:03:06.012Z,8.95
2022-08-07T03:04:03.406Z,8.95
2022-08-07T03:05:00.429Z,8.94
2022-08-07T03:06:00.573Z,8.94
2022-08-07T03:07:03.393Z,8.94
2022-08-07T03:08:06.985Z,8.94
2022-08-07T03:09:01.003Z,8.94
2022-08-07T03:10:01.164Z,8.95
2022-08-07T03:11:00.330Z,8.95
2022-08-07T03:12:02.566Z,8.95
2022-08-07T03:13:00.646Z,8.94
2022-08-07T03:14:01.786Z,8.94
2022-08-07T03:15:02.459Z,8.94
2022-08-07T03:16:01.057Z,8.94
2022-08-07T03:17:01.191Z,8.94
2022-08-07T03:18:00.370Z,8.94
2022-08-07T03:19:00.709Z,8.95
2022-08-07T03:20:00.632Z,8.94
2022-08-07T03:21:00.794Z,8.94
2022-08-07T03:22:00.930Z,8.94
2022-08-07T03:23:01.099Z,8.94
2022-08-07T03:24:20.932Z,8.93
2022-08-07T03:25:00.509Z,8.88
2022-08-07T03:26:00.551Z,8.85
2022-08-07T03:27:00.690Z,8.83
2022-08-07T03:28:09.517Z,8.83
2022-08-07T03:29:00.991Z,8.83
2022-08-07T03:30:01.131Z,8.82
2022-08-07T03:31:00.277Z,8.81
2022-08-07T03:32:00.455Z,8.81
2022-08-07T03:33:00.989Z,8.79
2022-08-07T03:34:00.778Z,8.79
2022-08-07T03:35:17.808Z,8.78
2022-08-07T03:36:01.041Z,8.77
2022-08-07T03:37:01.187Z,8.76
2022-08-07T03:38:00.339Z,8.75
2022-08-07T03:39:05.242Z,8.74
2022-08-07T03:40:15.869Z,8.74
2022-08-07T03:41:00.886Z,8.75
2022-08-07T03:42:00.923Z,8.75
2022-08-07T03:43:01.079Z,8.75
2022-08-07T03:44:01.236Z,8.75
2022-08-07T03:45:01.426Z,8.75
2022-08-07T03:46:00.524Z,8.76
2022-08-07T03:47:10.951Z,8.75
2022-08-07T03:48:00.806Z,8.74
2022-08-07T03:49:03.144Z,8.73
2022-08-07T03:50:01.145Z,8.73
2022-08-07T03:51:01.245Z,8.72
2022-08-07T03:52:01.100Z,8.72
2022-08-07T03:53:00.547Z,8.71
2022-08-07T03:54:35.252Z,8.71
2022-08-07T03:55:07.370Z,8.7
2022-08-07T03:56:04.286Z,8.67
2022-08-07T03:57:03.415Z,8.67
2022-08-07T03:58:08.698Z,8.65
2022-08-07T03:59:07.445Z,8.64
2022-08-07T04:00:01.801Z,8.62
2022-08-07T04:01:00.772Z,8.6
2022-08-07T04:02:00.853Z,8.59
2022-08-07T04:03:03.773Z,8.6
2022-08-07T04:04:04.933Z,8.6
2022-08-07T04:05:00.312Z,8.57
2022-08-07T04:06:00.470Z,8.58
2022-08-07T04:07:00.600Z,8.58
2022-08-07T04:08:00.749Z,8.57
2022-08-07T04:09:00.901Z,8.57
2022-08-07T04:10:02.892Z,8.56
2022-08-07T04:12:20.741Z,8.55
2022-08-07T04:12:26.331Z,8.56
2022-08-07T04:13:00.471Z,8.53
2022-08-07T04:14:10.376Z,8.55
2022-08-07T04:15:00.767Z,8.56
2022-08-07T04:16:00.949Z,8.58
2022-08-07T04:17:03.147Z,8.59
2022-08-07T04:18:57.945Z,8.58
2022-08-07T04:19:03.749Z,8.58
2022-08-07T04:20:00.495Z,8.59
2022-08-07T04:21:00.677Z,8.59
2022-08-07T04:22:07.824Z,8.58
2022-08-07T04:23:01.612Z,8.58
2022-08-07T04:24:03.506Z,8.57
2022-08-07T04:25:02.085Z,8.57
2022-08-07T04:26:00.378Z,8.58
2022-08-07T04:27:00.497Z,8.59
2022-08-07T04:28:01.180Z,8.6
2022-08-07T04:29:00.839Z,8.6
2022-08-07T04:30:02.684Z,8.61
2022-08-07T04:31:01.087Z,8.61
2022-08-07T04:32:03.012Z,8.61
2022-08-07T04:33:00.356Z,8.61
2022-08-07T04:34:00.501Z,8.61
2022-08-07T04:35:00.645Z,8.62
2022-08-07T04:36:00.820Z,8.62
2022-08-07T04:37:00.933Z,8.63
2022-08-07T04:38:06.724Z,8.64
2022-08-07T04:39:01.261Z,8.65
2022-08-07T04:40:00.441Z,8.66
2022-08-07T04:41:00.571Z,8.67
2022-08-07T04:42:00.699Z,8.67
2022-08-07T04:43:02.032Z,8.67
2022-08-07T04:44:12.335Z,8.68
2022-08-07T04:45:02.950Z,8.71
2022-08-07T04:46:02.061Z,8.71
2022-08-07T04:47:04.761Z,8.72
2022-08-07T04:48:04.201Z,8.73
2022-08-07T04:49:01.511Z,8.73
2022-08-07T04:50:04.067Z,8.74
2022-08-07T04:51:01.122Z,8.75
2022-08-07T04:52:00.266Z,8.75
2022-08-07T04:53:00.404Z,8.76
2022-08-07T04:54:05.407Z,8.78
2022-08-07T04:55:00.748Z,8.79
2022-08-07T04:58:12.100Z,8.81
2022-08-07T04:58:15.072Z,8.87
2022-08-07T04:58:15.189Z,8.83
2022-08-07T05:00:11.120Z,8.93
2022-08-07T05:00:14.514Z,8.94
2022-08-07T05:01:00.713Z,8.95
2022-08-07T05:02:00.807Z,8.97
2022-08-07T05:03:00.954Z,9
2022-08-07T05:04:07.502Z,9.02
2022-08-07T05:05:01.235Z,9.07
2022-08-07T05:06:00.392Z,9.11
2022-08-07T05:07:00.527Z,9.17
2022-08-07T05:08:00.668Z,9.22
2022-08-07T05:09:02.199Z,9.26
2022-08-07T05:10:01.014Z,9.31
2022-08-07T05:11:02.673Z,9.35
2022-08-07T05:12:02.567Z,9.36
2022-08-07T05:14:45.617Z,9.36
2022-08-07T05:14:52.729Z,9.37
2022-08-07T05:15:04.219Z,9.41
2022-08-07T05:16:04.593Z,9.45
2022-08-07T05:17:01.009Z,9.47
2022-08-07T05:18:01.588Z,9.48
2022-08-07T05:19:00.301Z,9.48
2022-08-07T05:20:00.454Z,9.5
2022-08-07T05:21:00.626Z,9.53
2022-08-07T05:22:01.802Z,9.57
2022-08-07T05:23:00.884Z,9.64
2022-08-07T05:24:01.039Z,9.7
2022-08-07T05:25:01.191Z,9.77
2022-08-07T05:26:12.847Z,9.82
2022-08-07T05:27:00.536Z,9.91
2022-08-07T05:28:03.387Z,9.98
2022-08-07T05:29:04.205Z,10.07
2022-08-07T05:30:00.932Z,10.18
2022-08-07T05:31:01.068Z,10.28
2022-08-07T05:32:01.241Z,10.4
2022-08-07T05:33:00.343Z,10.52
2022-08-07T05:34:04.720Z,10.64
2022-08-07T05:35:00.643Z,10.75
2022-08-07T05:36:00.784Z,10.85
2022-08-07T05:37:00.962Z,10.95
2022-08-07T05:38:08.905Z,11.08
2022-08-07T05:40:05.547Z,11.19
2022-08-07T05:40:16.486Z,11.29
2022-08-07T05:41:00.605Z,11.4
2022-08-07T05:42:03.849Z,11.49
2022-08-07T05:43:00.840Z,11.58
2022-08-07T05:44:11.681Z,11.69
2022-08-07T05:45:14.201Z,11.75
2022-08-07T05:46:00.277Z,11.84
2022-08-07T05:47:01.006Z,11.9
2022-08-07T05:48:02.706Z,11.96
2022-08-07T05:49:00.713Z,12.07
2022-08-07T05:50:00.857Z,12.17
2022-08-07T05:51:01.063Z,12.25
2022-08-07T05:52:01.191Z,12.32
2022-08-07T05:53:00.301Z,12.38
2022-08-07T05:54:13.680Z,12.44
2022-08-07T05:55:10.205Z,12.49
2022-08-07T05:56:03.311Z,12.53
2022-08-07T05:57:00.918Z,12.58
2022-08-07T05:58:01.054Z,12.6
2022-08-07T05:59:01.194Z,12.64
2022-08-07T06:00:01.213Z,12.67
2022-08-07T06:01:00.488Z,12.73
2022-08-07T06:02:00.706Z,12.84
2022-08-07T06:03:00.960Z,12.9
2022-08-07T06:04:01.478Z,12.94
2022-08-07T06:05:01.070Z,13.02
2022-08-07T06:06:01.229Z,13.14
2022-08-07T06:07:03.425Z,13.19
2022-08-07T06:08:13.110Z,13.24
2022-08-07T06:09:00.658Z,13.33
2022-08-07T06:10:05.451Z,13.38
2022-08-07T06:11:03.728Z,13.43
2022-08-07T06:12:01.128Z,13.54
2022-08-07T06:13:02.240Z,13.67
2022-08-07T06:14:11.730Z,13.68
2022-08-07T06:15:05.543Z,13.75
2022-08-07T06:16:00.680Z,13.88
2022-08-07T06:17:00.853Z,13.92
2022-08-07T06:18:01.040Z,13.96
2022-08-07T06:19:01.126Z,14.05
2022-08-07T06:20:04.242Z,14.09
2022-08-07T06:22:14.841Z,14.1
2022-08-07T06:22:15.683Z,14.14
2022-08-07T06:23:02.495Z,14.18
2022-08-07T06:24:45.967Z,14.23
2022-08-07T06:25:01.686Z,14.3
2022-08-07T06:26:01.182Z,14.43
2022-08-07T06:27:03.586Z,14.52
2022-08-07T06:28:02.650Z,14.72
2022-08-07T06:29:01.266Z,14.95
2022-08-07T06:30:00.819Z,14.93
2022-08-07T06:31:00.907Z,14.91
2022-08-07T06:32:01.514Z,14.86
2022-08-07T06:33:01.212Z,14.83
2022-08-07T06:34:00.348Z,14.84
2022-08-07T06:35:00.489Z,14.89
2022-08-07T06:36:13.194Z,14.93
2022-08-07T06:37:02.628Z,14.95
2022-08-07T06:38:00.950Z,14.98
2022-08-07T06:40:13.361Z,15.03
2022-08-07T06:40:17.601Z,15.08
2022-08-07T06:41:00.519Z,15.14
2022-08-07T06:42:03.306Z,15.16
2022-08-07T06:43:00.751Z,15.26
2022-08-07T06:44:01.781Z,15.32
2022-08-07T06:45:01.016Z,15.4
2022-08-07T06:46:01.162Z,15.45
2022-08-07T06:47:12.096Z,15.59
2022-08-07T06:48:00.476Z,15.8
2022-08-07T06:49:00.594Z,16.1
2022-08-07T06:50:00.750Z,16.26
2022-08-07T06:51:08.052Z,16.42
2022-08-07T06:52:07.224Z,16.57
2022-08-07T06:53:04.360Z,16.69
2022-08-07T06:55:27.907Z,16.79
2022-08-07T06:55:33.879Z,16.87
2022-08-07T06:56:02.132Z,16.95
2022-08-07T06:57:00.761Z,17.06
2022-08-07T06:58:00.968Z,17.18
2022-08-07T07:00:13.788Z,17.34
2022-08-07T07:00:14.657Z,17.26
2022-08-07T07:01:00.463Z,17.36
2022-08-07T07:02:00.743Z,17.4
2022-08-07T07:03:08.678Z,17.49
2022-08-07T07:04:08.301Z,17.58
2022-08-07T07:05:00.278Z,17.63
2022-08-07T07:06:02.959Z,17.66
2022-08-07T07:07:01.670Z,17.74
2022-08-07T07:08:03.914Z,17.81
2022-08-07T07:09:01.063Z,17.92
2022-08-07T07:10:01.255Z,17.98
2022-08-07T07:11:00.874Z,18.02
2022-08-07T07:12:09.586Z,18.05
2022-08-07T07:13:00.848Z,18.02
2022-08-07T07:14:02.361Z,17.94
2022-08-07T07:15:01.187Z,17.87
2022-08-07T07:16:00.354Z,17.88
2022-08-07T07:17:00.548Z,17.96
2022-08-07T07:18:00.741Z,18.02
2022-08-07T07:19:11.273Z,18.08
2022-08-07T07:20:01.055Z,18.12
2022-08-07T07:21:01.217Z,18.13
2022-08-07T07:22:04.609Z,18.13
2022-08-07T07:24:10.845Z,18.18
2022-08-07T07:24:11.242Z,18.2
2022-08-07T07:25:02.844Z,18.17
2022-08-07T07:26:33.052Z,18.19
2022-08-07T07:27:01.172Z,18.25
2022-08-07T07:28:03.095Z,18.28
2022-08-07T07:29:39.485Z,18.26
2022-08-07T07:30:09.849Z,18.26
2022-08-07T07:31:00.767Z,18.27
2022-08-07T07:32:00.929Z,18.29
2022-08-07T07:33:01.078Z,18.29
2022-08-07T07:34:01.255Z,18.28
2022-08-07T07:35:00.383Z,18.22
2022-08-07T07:36:05.231Z,18.2
2022-08-07T07:37:14.817Z,18.21
2022-08-07T07:38:02.538Z,18.26
2022-08-07T07:39:01.086Z,18.28
2022-08-07T07:40:01.146Z,18.33
2022-08-07T07:41:02.454Z,18.35
2022-08-07T07:42:08.751Z,18.36
2022-08-07T07:43:15.508Z,18.4
2022-08-07T07:44:14.494Z,18.43
2022-08-07T07:45:00.927Z,18.47
2022-08-07T07:46:37.147Z,18.53
2022-08-07T07:47:14.365Z,18.56
2022-08-07T07:48:00.355Z,18.59
2022-08-07T07:50:31.539Z,18.64
2022-08-07T07:50:34.647Z,18.69
2022-08-07T07:51:00.823Z,18.72
2022-08-07T07:52:00.974Z,18.77
2022-08-07T07:53:01.132Z,18.81
2022-08-07T07:54:00.286Z,18.86
2022-08-07T07:55:00.489Z,18.89
2022-08-07T07:56:01.263Z,18.89
2022-08-07T07:57:01.532Z,18.91
2022-08-07T07:58:00.876Z,18.92
2022-08-07T07:59:01.587Z,18.97
2022-08-07T08:00:01.205Z,18.99
2022-08-07T08:01:00.344Z,19.04
2022-08-07T08:02:03.205Z,19.11
2022-08-07T08:03:04.953Z,19.15
2022-08-07T08:04:10.490Z,19.21
2022-08-07T08:05:00.960Z,19.24
2022-08-07T08:06:01.094Z,19.26
2022-08-07T08:07:02.805Z,19.27
2022-08-07T08:08:01.259Z,19.31
2022-08-07T08:09:00.556Z,19.4
2022-08-07T08:10:04.902Z,19.45
2022-08-07T08:11:00.864Z,19.54
2022-08-07T08:12:03.936Z,19.63
2022-08-07T08:13:02.873Z,19.71
2022-08-07T08:14:00.287Z,19.84
2022-08-07T08:15:00.473Z,19.91
2022-08-07T08:16:00.776Z,19.94
2022-08-07T08:17:55.934Z,20.03
2022-08-07T08:18:17.540Z,20.07
2022-08-07T08:19:17.823Z,20.12
2022-08-07T08:20:19.263Z,20.21
2022-08-07T08:21:00.331Z,20.31
2022-08-07T08:22:03.220Z,20.41
2022-08-07T08:23:00.645Z,20.49
2022-08-07T08:24:00.804Z,20.56
2022-08-07T08:25:09.507Z,20.61
2022-08-07T08:26:06.254Z,20.69
2022-08-07T08:27:01.260Z,20.75
2022-08-07T08:28:01.943Z,20.8
2022-08-07T08:29:00.568Z,20.89
2022-08-07T08:30:03.837Z,21
2022-08-07T08:31:00.887Z,21.11
2022-08-07T08:32:17.887Z,21.23
2022-08-07T08:33:01.608Z,21.25
2022-08-07T08:34:00.317Z,21.22
2022-08-07T08:35:00.482Z,21.27
2022-08-07T08:36:00.655Z,21.35
2022-08-07T08:37:00.779Z,21.46
2022-08-07T08:38:03.487Z,21.52
2022-08-07T08:39:02.073Z,21.61
2022-08-07T08:40:01.304Z,21.73
2022-08-07T08:41:00.394Z,21.73
2022-08-07T08:42:00.531Z,21.79
2022-08-07T08:43:00.683Z,21.91
2022-08-07T08:44:00.817Z,22.03
2022-08-07T08:45:00.971Z,22.11
2022-08-07T08:46:01.199Z,22.27
2022-08-07T08:47:00.313Z,22.38
2022-08-07T08:48:00.418Z,22.48
2022-08-07T08:49:00.661Z,22.54
2022-08-07T08:50:04.678Z,22.63
2022-08-07T08:51:03.450Z,22.66
2022-08-07T08:52:14.471Z,22.71
2022-08-07T08:53:01.159Z,22.84
2022-08-07T08:54:00.297Z,22.82
2022-08-07T08:55:01.187Z,22.8
2022-08-07T08:56:00.612Z,22.93
2022-08-07T08:57:00.770Z,22.98
2022-08-07T08:58:00.899Z,22.98
2022-08-07T08:59:06.464Z,22.93
2022-08-07T09:00:01.199Z,22.96
2022-08-07T09:01:00.957Z,22.98
2022-08-07T09:02:00.643Z,23.05
2022-08-07T09:03:00.849Z,23.16
2022-08-07T09:04:00.842Z,23.25
2022-08-07T09:05:00.998Z,23.42
2022-08-07T09:06:01.165Z,23.59
2022-08-07T09:07:00.325Z,23.65
2022-08-07T09:08:00.462Z,23.66
2022-08-07T09:09:00.600Z,23.62
2022-08-07T09:10:02.600Z,23.62
2022-08-07T09:11:00.947Z,23.58
2022-08-07T09:12:20.027Z,23.57
2022-08-07T09:13:00.273Z,23.55
2022-08-07T09:14:00.423Z,23.56
2022-08-07T09:15:00.581Z,23.65
2022-08-07T09:16:22.202Z,23.65
2022-08-07T09:17:00.909Z,23.71
2022-08-07T09:18:09.913Z,23.87
2022-08-07T09:19:03.498Z,23.89
2022-08-07T09:20:00.335Z,23.92
2022-08-07T09:21:01.086Z,24.03
2022-08-07T09:22:23.173Z,24.11
2022-08-07T09:24:31.834Z,24.19
2022-08-07T09:24:33.075Z,24.26
2022-08-07T09:25:11.831Z,24.23
2022-08-07T09:26:01.221Z,24.19
2022-08-07T09:27:04.639Z,24.11
2022-08-07T09:28:02.013Z,24.11
2022-08-07T09:30:02.282Z,24.06
2022-08-07T09:30:07.933Z,23.92
2022-08-07T09:31:00.966Z,23.83
2022-08-07T09:32:01.110Z,23.81
2022-08-07T09:34:00.484Z,23.72
2022-08-07T09:35:04.579Z,23.82
2022-08-07T09:36:02.738Z,23.88
2022-08-07T09:37:00.848Z,23.89
2022-08-07T09:38:00.999Z,23.8
2022-08-07T09:39:11.521Z,23.76
2022-08-07T09:40:00.441Z,23.71
2022-08-07T09:41:00.456Z,23.67
2022-08-07T09:42:05.848Z,23.67
2022-08-07T09:43:00.752Z,23.71
2022-08-07T09:44:05.545Z,23.73
2022-08-07T09:47:25.462Z,23.92
2022-08-07T09:47:51.359Z,23.8
2022-08-07T09:47:51.542Z,23.96
2022-08-07T09:48:04.057Z,23.96
2022-08-07T09:50:18.298Z,23.9
2022-08-07T09:50:19.250Z,23.85
2022-08-07T09:51:00.965Z,23.87
2022-08-07T09:52:16.021Z,23.81
2022-08-07T09:53:00.265Z,23.77
2022-08-07T09:54:02.668Z,23.81
2022-08-07T09:55:00.808Z,23.83
2022-08-07T09:56:04.036Z,23.75
2022-08-07T09:57:00.932Z,23.64
2022-08-07T09:58:01.039Z,23.52
2022-08-07T09:59:01.232Z,23.47
2022-08-07T10:00:01.830Z,23.49
2022-08-07T10:01:00.661Z,23.51
2022-08-07T10:02:00.957Z,23.58
2022-08-07T10:03:08.287Z,23.66
2022-08-07T10:04:05.400Z,23.65
2022-08-07T10:05:01.112Z,23.64
2022-08-07T10:06:04.412Z,23.56
2022-08-07T10:07:00.451Z,23.52
2022-08-07T10:08:00.927Z,23.5
2022-08-07T10:09:00.984Z,23.5
2022-08-07T10:10:02.981Z,23.42
2022-08-07T10:11:16.906Z,23.27
2022-08-07T10:12:11.755Z,23.29
2022-08-07T10:13:00.326Z,23.31
2022-08-07T10:14:02.330Z,23.29
2022-08-07T10:15:00.636Z,23.28
2022-08-07T10:16:00.781Z,23.26
2022-08-07T10:17:01.139Z,23.2
2022-08-07T10:18:03.506Z,23.18
2022-08-07T10:19:00.291Z,23.09
2022-08-07T10:20:00.409Z,23.05
2022-08-07T10:21:00.556Z,23.05
2022-08-07T10:22:15.751Z,23.07
2022-08-07T10:23:00.846Z,23.14
2022-08-07T10:24:06.227Z,23.21
2022-08-07T10:25:01.167Z,23.25
2022-08-07T10:26:00.604Z,23.29
2022-08-07T10:27:00.435Z,23.3
2022-08-07T10:28:00.584Z,23.34
2022-08-07T10:29:00.741Z,23.31
2022-08-07T10:30:00.911Z,23.32
2022-08-07T10:31:01.038Z,23.29
2022-08-07T10:32:01.179Z,23.28
2022-08-07T10:33:00.345Z,23.23
2022-08-07T10:34:14.254Z,23.2
2022-08-07T10:35:00.644Z,23.15
2022-08-07T10:36:05.570Z,23.06
2022-08-07T10:37:04.086Z,23.03
2022-08-07T10:38:21.164Z,23.05
2022-08-07T10:39:01.296Z,23.02
2022-08-07T10:40:05.455Z,23.03
2022-08-07T10:41:00.556Z,23.11
2022-08-07T10:42:20.615Z,23.16
2022-08-07T10:43:00.866Z,23.21
2022-08-07T10:44:07.304Z,23.07
2022-08-07T10:45:01.185Z,23.09
2022-08-07T10:46:00.358Z,23.15
2022-08-07T10:47:00.481Z,23.18
2022-08-07T10:48:03.581Z,23.22
2022-08-07T10:49:00.778Z,23.26
2022-08-07T10:50:00.930Z,23.28
2022-08-07T10:51:01.087Z,23.31
2022-08-07T10:52:13.121Z,23.36
2022-08-07T10:53:08.040Z,23.34
2022-08-07T10:54:00.618Z,23.27
2022-08-07T10:55:21.274Z,23.21
2022-08-07T10:56:02.472Z,23.18
2022-08-07T10:57:01.011Z,23.15
2022-08-07T10:58:01.140Z,23.07
2022-08-07T10:59:00.339Z,23.06
2022-08-07T11:00:00.427Z,23.01
2022-08-07T11:01:00.756Z,22.96
2022-08-07T11:02:05.529Z,22.95
2022-08-07T11:03:01.078Z,23.05
2022-08-07T11:04:16.606Z,23.11
2022-08-07T11:05:08.498Z,23.01
2022-08-07T11:06:00.337Z,22.95
2022-08-07T11:07:00.505Z,22.86
2022-08-07T11:08:03.460Z,22.79
2022-08-07T11:09:00.776Z,22.72
2022-08-07T11:10:07.221Z,22.64
2022-08-07T11:11:01.094Z,22.63
2022-08-07T11:12:01.229Z,22.64
2022-08-07T11:13:01.534Z,22.67
2022-08-07T11:14:44.102Z,22.66
2022-08-07T11:15:01.155Z,22.67
2022-08-07T11:16:00.859Z,22.71
2022-08-07T11:17:02.198Z,22.8
2022-08-07T11:18:03.655Z,22.85
2022-08-07T11:19:00.264Z,22.84
2022-08-07T11:20:03.423Z,22.88
2022-08-07T11:21:00.557Z,22.94
2022-08-07T11:22:00.710Z,22.96
2022-08-07T11:23:01.413Z,22.99
2022-08-07T11:24:01.024Z,22.98
2022-08-07T11:25:04.306Z,23.01
2022-08-07T11:26:06.371Z,23
2022-08-07T11:27:01.183Z,23.08
2022-08-07T11:28:03.070Z,23.14
2022-08-07T11:29:00.786Z,23.18
2022-08-07T11:30:17.511Z,23.26
2022-08-07T11:31:01.048Z,23.24
2022-08-07T11:32:01.202Z,23.22
2022-08-07T11:33:00.365Z,23.18
2022-08-07T11:34:00.773Z,23.17
2022-08-07T11:35:00.643Z,23.13
2022-08-07T11:36:01.744Z,23.15
2022-08-07T11:37:00.972Z,23.1
2022-08-07T11:38:10.485Z,23
2022-08-07T11:39:00.336Z,23.01
2022-08-07T11:40:03.398Z,23.02
2022-08-07T11:41:00.560Z,23.07
2022-08-07T11:42:02.876Z,23.22
2022-08-07T11:43:00.851Z,23.28
2022-08-07T11:44:12.755Z,23.38
2022-08-07T11:45:01.150Z,23.5
2022-08-07T11:46:00.299Z,23.56
2022-08-07T11:47:00.446Z,23.61
2022-08-07T11:48:02.572Z,23.61
2022-08-07T11:49:51.104Z,23.59
2022-08-07T11:50:31.489Z,23.62
2022-08-07T11:51:01.049Z,23.64
2022-08-07T11:52:01.192Z,23.65
2022-08-07T11:53:00.364Z,23.64
2022-08-07T11:54:01.890Z,23.64
2022-08-07T11:55:01.278Z,23.65
2022-08-07T11:56:09.253Z,23.62
2022-08-07T11:57:00.942Z,23.59
2022-08-07T11:58:01.735Z,23.59
2022-08-07T11:59:01.261Z,23.62
2022-08-07T12:00:10.404Z,23.66
2022-08-07T12:01:04.396Z,23.55
2022-08-07T12:02:01.274Z,23.41
2022-08-07T12:03:00.927Z,23.39
2022-08-07T12:04:01.127Z,23.36
2022-08-07T12:05:01.204Z,23.34
2022-08-07T12:06:00.332Z,23.37
2022-08-07T12:07:07.904Z,23.4
2022-08-07T12:08:03.804Z,23.31
2022-08-07T12:09:00.794Z,23.34
2022-08-07T12:10:02.221Z,23.46
2022-08-07T12:11:20.347Z,23.55
2022-08-07T12:12:09.726Z,23.66
2022-08-07T12:13:00.375Z,23.69
2022-08-07T12:14:00.532Z,23.73
2022-08-07T12:15:01.302Z,23.79
2022-08-07T12:16:05.898Z,23.83
2022-08-07T12:17:00.973Z,23.95
2022-08-07T12:18:01.137Z,24.01
2022-08-07T12:19:00.280Z,24.09
2022-08-07T12:20:05.496Z,24.17
2022-08-07T12:21:00.610Z,24.21
2022-08-07T12:22:39.389Z,24.27
2022-08-07T12:23:00.908Z,24.32
2022-08-07T12:24:07.634Z,24.4
2022-08-07T12:25:02.276Z,24.38
2022-08-07T12:26:22.260Z,24.43
2022-08-07T12:27:00.507Z,24.47
2022-08-07T12:28:08.506Z,24.47
2022-08-07T12:29:00.848Z,24.58
2022-08-07T12:30:01.021Z,24.7
2022-08-07T12:31:01.163Z,24.83
2022-08-07T12:32:04.168Z,24.86
2022-08-07T12:33:00.450Z,24.86
2022-08-07T12:34:01.977Z,24.93
2022-08-07T12:35:00.862Z,25.04
2022-08-07T12:36:02.338Z,25.06
2022-08-07T12:37:01.045Z,25.13
2022-08-07T12:38:11.258Z,25.14
2022-08-07T12:39:00.507Z,25.15
2022-08-07T12:40:00.571Z,25.24
2022-08-07T12:41:00.710Z,25.37
2022-08-07T12:42:00.801Z,25.49
2022-08-07T12:43:00.992Z,25.51
2022-08-07T12:44:03.617Z,25.49
2022-08-07T12:45:00.304Z,25.46
2022-08-07T12:46:01.225Z,25.52
2022-08-07T12:47:00.598Z,25.52
2022-08-07T12:48:00.771Z,25.53
2022-08-07T12:49:00.896Z,25.59
2022-08-07T12:50:05.006Z,25.59
2022-08-07T12:51:01.202Z,25.51
2022-08-07T12:52:14.202Z,25.48
2022-08-07T12:53:00.482Z,25.52
2022-08-07T12:54:02.739Z,25.53
2022-08-07T12:55:05.179Z,25.53
2022-08-07T12:56:02.437Z,25.53
2022-08-07T12:57:07.396Z,25.54
2022-08-07T12:58:02.510Z,25.53
2022-08-07T12:59:00.376Z,25.64
2022-08-07T13:00:00.524Z,25.8
2022-08-07T13:01:00.763Z,25.9
2022-08-07T13:02:00.864Z,26.03
2022-08-07T13:03:01.018Z,26.07